Terminal Aerodrome Forecast
Issued by NWS Charleston, WV

Current Version | Previous Version | Text Only | Print | Product List | Glossary On
Versions: 1 2 3 4 5 6 7 8 9 10 11 12 13 14 15 16 17 18 19 20 21 22 23 24
162
FTUS41 KRLX 070219 AAA
TAFHTS
TAF AMD
KHTS 070219Z 0702/0724 29009G18KT P6SM OVC019
     FM070300 28009G16KT P6SM BKN010
     FM071100 29004KT 5SM BR BKN024
     FM071300 VRB03KT P6SM BKN070=

USA.gov is the U.S. government's official web portal to all federal, state and local government web resources and services.